sensor_id;sensor_type;location;lat;lon;timestamp;temperature;humidity
12452;DHT22;6291;48.924;12.204;2022-07-17T00:04:25;15.70;69.90
12452;DHT22;6291;48.924;12.204;2022-07-17T00:09:28;15.90;68.70
12452;DHT22;6291;48.924;12.204;2022-07-17T00:14:32;16.00;68.60
12452;DHT22;6291;48.924;12.204;2022-07-17T00:19:37;16.00;68.70
12452;DHT22;6291;48.924;12.204;2022-07-17T00:24:41;15.90;68.90
12452;DHT22;6291;48.924;12.204;2022-07-17T00:29:44;15.90;69.50
12452;DHT22;6291;48.924;12.204;2022-07-17T00:34:49;15.60;70.20
12452;DHT22;6291;48.924;12.204;2022-07-17T00:39:52;15.40;71.60
12452;DHT22;6291;48.924;12.204;2022-07-17T00:44:56;15.30;71.80
12452;DHT22;6291;48.924;12.204;2022-07-17T00:50:00;15.40;71.50
12452;DHT22;6291;48.924;12.204;2022-07-17T00:55:04;15.50;71.50
12452;DHT22;6291;48.924;12.204;2022-07-17T01:00:28;15.50;71.90
12452;DHT22;6291;48.924;12.204;2022-07-17T01:05:33;15.50;71.90
12452;DHT22;6291;48.924;12.204;2022-07-17T01:10:36;15.40;72.10
12452;DHT22;6291;48.924;12.204;2022-07-17T01:15:40;15.30;73.30
12452;DHT22;6291;48.924;12.204;2022-07-17T01:20:47;15.20;73.60
12452;DHT22;6291;48.924;12.204;2022-07-17T01:25:52;15.10;73.80
12452;DHT22;6291;48.924;12.204;2022-07-17T01:30:55;15.00;74.80
12452;DHT22;6291;48.924;12.204;2022-07-17T01:35:59;15.00;74.30
12452;DHT22;6291;48.924;12.204;2022-07-17T01:41:04;14.90;75.20
12452;DHT22;6291;48.924;12.204;2022-07-17T01:46:07;14.70;76.00
12452;DHT22;6291;48.924;12.204;2022-07-17T01:51:11;14.70;76.50
12452;DHT22;6291;48.924;12.204;2022-07-17T01:56:15;14.70;76.80
12452;DHT22;6291;48.924;12.204;2022-07-17T02:01:19;14.50;77.60
12452;DHT22;6291;48.924;12.204;2022-07-17T02:06:22;14.40;78.60
12452;DHT22;6291;48.924;12.204;2022-07-17T02:11:27;14.40;78.70
12452;DHT22;6291;48.924;12.204;2022-07-17T02:16:30;14.50;78.50
12452;DHT22;6291;48.924;12.204;2022-07-17T02:21:34;14.50;78.80
12452;DHT22;6291;48.924;12.204;2022-07-17T02:26:39;14.50;78.90
12452;DHT22;6291;48.924;12.204;2022-07-17T02:31:43;14.40;79.30
12452;DHT22;6291;48.924;12.204;2022-07-17T02:36:46;14.40;79.40
12452;DHT22;6291;48.924;12.204;2022-07-17T02:41:51;14.30;79.60
12452;DHT22;6291;48.924;12.204;2022-07-17T02:46:54;14.30;80.10
12452;DHT22;6291;48.924;12.204;2022-07-17T02:51:57;14.20;80.50
12452;DHT22;6291;48.924;12.204;2022-07-17T02:57:02;14.10;81.10
12452;DHT22;6291;48.924;12.204;2022-07-17T03:02:05;14.00;81.40
12452;DHT22;6291;48.924;12.204;2022-07-17T03:07:09;14.10;81.30
12452;DHT22;6291;48.924;12.204;2022-07-17T03:12:13;14.00;81.90
12452;DHT22;6291;48.924;12.204;2022-07-17T03:17:17;13.90;82.40
12452;DHT22;6291;48.924;12.204;2022-07-17T03:22:21;13.80;83.00
12452;DHT22;6291;48.924;12.204;2022-07-17T03:27:25;13.70;83.40
12452;DHT22;6291;48.924;12.204;2022-07-17T03:32:29;13.80;83.60
12452;DHT22;6291;48.924;12.204;2022-07-17T03:37:32;13.80;83.60
12452;DHT22;6291;48.924;12.204;2022-07-17T03:42:37;13.60;84.40
12452;DHT22;6291;48.924;12.204;2022-07-17T03:47:40;13.50;85.10
12452;DHT22;6291;48.924;12.204;2022-07-17T03:52:43;13.40;86.00
12452;DHT22;6291;48.924;12.204;2022-07-17T03:57:48;13.50;85.60
12452;DHT22;6291;48.924;12.204;2022-07-17T04:02:51;13.50;86.10
12452;DHT22;6291;48.924;12.204;2022-07-17T04:07:55;13.50;86.50
12452;DHT22;6291;48.924;12.204;2022-07-17T04:12:59;13.50;86.80
12452;DHT22;6291;48.924;12.204;2022-07-17T04:18:03;13.50;87.30
12452;DHT22;6291;48.924;12.204;2022-07-17T04:23:06;13.60;87.60
12452;DHT22;6291;48.924;12.204;2022-07-17T04:28:11;13.70;87.00
12452;DHT22;6291;48.924;12.204;2022-07-17T04:33:16;13.80;86.70
12452;DHT22;6291;48.924;12.204;2022-07-17T04:38:19;13.80;87.10
12452;DHT22;6291;48.924;12.204;2022-07-17T04:43:24;13.80;87.60
12452;DHT22;6291;48.924;12.204;2022-07-17T04:48:28;14.00;87.30
12452;DHT22;6291;48.924;12.204;2022-07-17T04:53:31;14.00;87.30
12452;DHT22;6291;48.924;12.204;2022-07-17T04:58:37;14.10;86.90
12452;DHT22;6291;48.924;12.204;2022-07-17T05:03:40;14.20;87.20
12452;DHT22;6291;48.924;12.204;2022-07-17T05:08:43;14.20;87.50
12452;DHT22;6291;48.924;12.204;2022-07-17T05:13:48;14.50;87.30
12452;DHT22;6291;48.924;12.204;2022-07-17T05:18:51;14.80;86.40
12452;DHT22;6291;48.924;12.204;2022-07-17T05:23:55;14.90;86.60
12452;DHT22;6291;48.924;12.204;2022-07-17T05:28:59;14.90;86.80
12452;DHT22;6291;48.924;12.204;2022-07-17T05:34:02;15.10;85.90
12452;DHT22;6291;48.924;12.204;2022-07-17T05:39:06;15.30;83.30
12452;DHT22;6291;48.924;12.204;2022-07-17T05:44:11;15.90;81.30
12452;DHT22;6291;48.924;12.204;2022-07-17T05:49:14;16.30;82.30
12452;DHT22;6291;48.924;12.204;2022-07-17T05:54:18;20.30;77.10
12452;DHT22;6291;48.924;12.204;2022-07-17T05:59:22;18.60;73.00
12452;DHT22;6291;48.924;12.204;2022-07-17T06:04:26;19.80;67.00
12452;DHT22;6291;48.924;12.204;2022-07-17T06:09:29;19.90;65.80
12452;DHT22;6291;48.924;12.204;2022-07-17T06:14:35;20.50;63.00
12452;DHT22;6291;48.924;12.204;2022-07-17T06:19:38;20.80;62.40
12452;DHT22;6291;48.924;12.204;2022-07-17T06:24:41;21.10;61.00
12452;DHT22;6291;48.924;12.204;2022-07-17T06:29:46;20.90;59.60
12452;DHT22;6291;48.924;12.204;2022-07-17T06:34:57;21.50;59.70
12452;DHT22;6291;48.924;12.204;2022-07-17T06:40:00;21.60;58.30
12452;DHT22;6291;48.924;12.204;2022-07-17T06:45:06;22.00;57.70
12452;DHT22;6291;48.924;12.204;2022-07-17T06:50:10;22.50;56.90
12452;DHT22;6291;48.924;12.204;2022-07-17T06:55:13;23.00;55.30
12452;DHT22;6291;48.924;12.204;2022-07-17T07:00:18;23.20;53.70
12452;DHT22;6291;48.924;12.204;2022-07-17T07:05:21;23.60;53.80
12452;DHT22;6291;48.924;12.204;2022-07-17T07:10:25;23.60;55.60
12452;DHT22;6291;48.924;12.204;2022-07-17T07:15:29;24.50;50.60
12452;DHT22;6291;48.924;12.204;2022-07-17T07:20:33;23.60;51.80
12452;DHT22;6291;48.924;12.204;2022-07-17T07:25:36;23.70;49.80
12452;DHT22;6291;48.924;12.204;2022-07-17T07:30:41;23.50;49.90
12452;DHT22;6291;48.924;12.204;2022-07-17T07:35:44;23.30;51.40
12452;DHT22;6291;48.924;12.204;2022-07-17T07:40:47;24.50;49.60
12452;DHT22;6291;48.924;12.204;2022-07-17T07:45:52;25.10;48.80
12452;DHT22;6291;48.924;12.204;2022-07-17T07:50:56;24.70;48.50
12452;DHT22;6291;48.924;12.204;2022-07-17T07:56:00;25.60;46.50
12452;DHT22;6291;48.924;12.204;2022-07-17T08:01:04;26.00;45.10
12452;DHT22;6291;48.924;12.204;2022-07-17T08:06:08;26.10;44.80
12452;DHT22;6291;48.924;12.204;2022-07-17T08:11:13;26.10;44.90
12452;DHT22;6291;48.924;12.204;2022-07-17T08:16:19;26.10;45.10
12452;DHT22;6291;48.924;12.204;2022-07-17T08:21:22;26.00;46.70
12452;DHT22;6291;48.924;12.204;2022-07-17T08:26:25;26.80;43.90
12452;DHT22;6291;48.924;12.204;2022-07-17T08:31:30;26.00;45.20
12452;DHT22;6291;48.924;12.204;2022-07-17T08:36:34;26.30;46.10
12452;DHT22;6291;48.924;12.204;2022-07-17T08:41:38;27.50;41.10
12452;DHT22;6291;48.924;12.204;2022-07-17T08:46:43;27.40;41.20
12452;DHT22;6291;48.924;12.204;2022-07-17T08:51:47;24.70;48.30
12452;DHT22;6291;48.924;12.204;2022-07-17T08:56:51;26.80;43.80
12452;DHT22;6291;48.924;12.204;2022-07-17T09:01:56;27.50;44.00
12452;DHT22;6291;48.924;12.204;2022-07-17T09:07:02;28.50;38.90
12452;DHT22;6291;48.924;12.204;2022-07-17T09:12:06;29.00;40.70
12452;DHT22;6291;48.924;12.204;2022-07-17T09:17:11;26.50;41.60
12452;DHT22;6291;48.924;12.204;2022-07-17T09:22:16;27.30;41.20
12452;DHT22;6291;48.924;12.204;2022-07-17T09:27:32;28.80;38.30
12452;DHT22;6291;48.924;12.204;2022-07-17T09:32:39;26.20;40.60
12452;DHT22;6291;48.924;12.204;2022-07-17T09:37:42;27.40;39.50
12452;DHT22;6291;48.924;12.204;2022-07-17T09:42:55;29.20;36.40
12452;DHT22;6291;48.924;12.204;2022-07-17T09:48:00;26.40;40.70
12452;DHT22;6291;48.924;12.204;2022-07-17T09:53:05;29.30;35.50
12452;DHT22;6291;48.924;12.204;2022-07-17T09:58:11;29.30;36.30
12452;DHT22;6291;48.924;12.204;2022-07-17T10:03:18;30.40;33.20
12452;DHT22;6291;48.924;12.204;2022-07-17T10:08:22;31.30;33.30
12452;DHT22;6291;48.924;12.204;2022-07-17T10:13:25;32.30;30.40
12452;DHT22;6291;48.924;12.204;2022-07-17T10:18:39;30.30;34.20
12452;DHT22;6291;48.924;12.204;2022-07-17T10:23:47;27.50;36.60
12452;DHT22;6291;48.924;12.204;2022-07-17T10:28:50;26.00;40.20
12452;DHT22;6291;48.924;12.204;2022-07-17T10:33:59;29.00;35.20
12452;DHT22;6291;48.924;12.204;2022-07-17T10:39:13;29.50;33.20
12452;DHT22;6291;48.924;12.204;2022-07-17T10:44:24;29.90;30.90
12452;DHT22;6291;48.924;12.204;2022-07-17T10:49:28;30.30;30.60
12452;DHT22;6291;48.924;12.204;2022-07-17T10:54:33;30.60;32.00
12452;DHT22;6291;48.924;12.204;2022-07-17T10:59:41;30.90;29.90
12452;DHT22;6291;48.924;12.204;2022-07-17T11:04:46;31.30;30.10
12452;DHT22;6291;48.924;12.204;2022-07-17T11:09:49;32.60;28.80
12452;DHT22;6291;48.924;12.204;2022-07-17T11:14:59;31.90;29.20
12452;DHT22;6291;48.924;12.204;2022-07-17T11:20:05;33.00;26.30
12452;DHT22;6291;48.924;12.204;2022-07-17T11:25:10;33.00;27.90
12452;DHT22;6291;48.924;12.204;2022-07-17T11:30:15;33.70;26.60
12452;DHT22;6291;48.924;12.204;2022-07-17T11:35:21;33.40;26.50
12452;DHT22;6291;48.924;12.204;2022-07-17T11:40:46;30.10;30.50
12452;DHT22;6291;48.924;12.204;2022-07-17T11:45:50;31.90;29.80
12452;DHT22;6291;48.924;12.204;2022-07-17T11:50:56;31.30;28.00
12452;DHT22;6291;48.924;12.204;2022-07-17T11:56:00;31.40;28.40
12452;DHT22;6291;48.924;12.204;2022-07-17T12:01:04;28.90;31.30
12452;DHT22;6291;48.924;12.204;2022-07-17T12:06:09;28.90;29.40
12452;DHT22;6291;48.924;12.204;2022-07-17T12:11:12;28.10;31.30
12452;DHT22;6291;48.924;12.204;2022-07-17T12:16:22;29.60;30.80
12452;DHT22;6291;48.924;12.204;2022-07-17T12:21:28;27.70;31.10
12452;DHT22;6291;48.924;12.204;2022-07-17T12:26:32;31.70;29.20
12452;DHT22;6291;48.924;12.204;2022-07-17T12:31:36;34.00;25.60
12452;DHT22;6291;48.924;12.204;2022-07-17T12:36:41;31.90;26.30
12452;DHT22;6291;48.924;12.204;2022-07-17T12:41:45;30.70;26.40
12452;DHT22;6291;48.924;12.204;2022-07-17T12:46:49;31.50;24.90
12452;DHT22;6291;48.924;12.204;2022-07-17T12:51:55;29.20;28.00
12452;DHT22;6291;48.924;12.204;2022-07-17T12:56:59;29.50;27.40
12452;DHT22;6291;48.924;12.204;2022-07-17T13:02:03;29.90;25.40
12452;DHT22;6291;48.924;12.204;2022-07-17T13:07:09;29.60;26.70
12452;DHT22;6291;48.924;12.204;2022-07-17T13:12:12;30.70;27.40
12452;DHT22;6291;48.924;12.204;2022-07-17T13:17:16;30.20;25.70
12452;DHT22;6291;48.924;12.204;2022-07-17T13:22:21;29.50;25.30
12452;DHT22;6291;48.924;12.204;2022-07-17T13:27:25;29.20;25.30
12452;DHT22;6291;48.924;12.204;2022-07-17T13:32:29;29.10;25.60
12452;DHT22;6291;48.924;12.204;2022-07-17T13:37:35;29.30;26.60
12452;DHT22;6291;48.924;12.204;2022-07-17T13:42:40;29.90;24.40
12452;DHT22;6291;48.924;12.204;2022-07-17T13:47:44;30.20;24.60
12452;DHT22;6291;48.924;12.204;2022-07-17T13:52:48;29.90;25.10
12452;DHT22;6291;48.924;12.204;2022-07-17T13:57:52;29.60;25.50
12452;DHT22;6291;48.924;12.204;2022-07-17T14:02:55;27.90;25.20
12452;DHT22;6291;48.924;12.204;2022-07-17T14:08:00;28.10;27.40
12452;DHT22;6291;48.924;12.204;2022-07-17T14:13:04;29.10;25.80
12452;DHT22;6291;48.924;12.204;2022-07-17T14:18:08;29.40;24.10
12452;DHT22;6291;48.924;12.204;2022-07-17T14:23:14;29.40;24.50
12452;DHT22;6291;48.924;12.204;2022-07-17T14:28:19;29.50;25.20
12452;DHT22;6291;48.924;12.204;2022-07-17T14:33:23;29.80;22.90
12452;DHT22;6291;48.924;12.204;2022-07-17T14:38:28;29.10;25.30
12452;DHT22;6291;48.924;12.204;2022-07-17T14:43:32;29.00;23.00
12452;DHT22;6291;48.924;12.204;2022-07-17T14:48:43;28.90;24.70
12452;DHT22;6291;48.924;12.204;2022-07-17T14:53:48;29.20;23.60
12452;DHT22;6291;48.924;12.204;2022-07-17T14:58:52;29.30;23.90
12452;DHT22;6291;48.924;12.204;2022-07-17T15:03:56;29.00;25.10
12452;DHT22;6291;48.924;12.204;2022-07-17T15:09:02;29.60;25.20
12452;DHT22;6291;48.924;12.204;2022-07-17T15:14:05;29.90;23.50
12452;DHT22;6291;48.924;12.204;2022-07-17T15:19:09;29.90;24.10
12452;DHT22;6291;48.924;12.204;2022-07-17T15:24:14;29.80;23.60
12452;DHT22;6291;48.924;12.204;2022-07-17T15:29:18;29.80;22.80
12452;DHT22;6291;48.924;12.204;2022-07-17T15:34:23;29.80;22.90
12452;DHT22;6291;48.924;12.204;2022-07-17T15:39:28;29.90;22.70
12452;DHT22;6291;48.924;12.204;2022-07-17T15:44:32;30.30;23.60
12452;DHT22;6291;48.924;12.204;2022-07-17T15:49:35;30.00;21.70
12452;DHT22;6291;48.924;12.204;2022-07-17T15:54:41;29.80;22.90
12452;DHT22;6291;48.924;12.204;2022-07-17T15:59:49;30.00;23.20
12452;DHT22;6291;48.924;12.204;2022-07-17T16:04:53;30.20;23.50
12452;DHT22;6291;48.924;12.204;2022-07-17T16:09:58;30.40;22.40
12452;DHT22;6291;48.924;12.204;2022-07-17T16:15:03;30.30;22.60
12452;DHT22;6291;48.924;12.204;2022-07-17T16:20:07;30.00;22.90
12452;DHT22;6291;48.924;12.204;2022-07-17T16:25:14;29.50;23.20
12452;DHT22;6291;48.924;12.204;2022-07-17T16:30:17;28.80;25.00
12452;DHT22;6291;48.924;12.204;2022-07-17T16:35:21;29.00;22.80
12452;DHT22;6291;48.924;12.204;2022-07-17T16:40:26;29.00;23.20
12452;DHT22;6291;48.924;12.204;2022-07-17T16:45:30;28.60;22.60
12452;DHT22;6291;48.924;12.204;2022-07-17T16:50:40;28.40;22.80
12452;DHT22;6291;48.924;12.204;2022-07-17T16:55:47;28.30;22.80
12452;DHT22;6291;48.924;12.204;2022-07-17T17:00:50;28.30;23.60
12452;DHT22;6291;48.924;12.204;2022-07-17T17:05:54;25.60;22.60
12452;DHT22;6291;48.924;12.204;2022-07-17T17:10:59;27.90;26.70
12452;DHT22;6291;48.924;12.204;2022-07-17T17:16:03;27.70;24.00
12452;DHT22;6291;48.924;12.204;2022-07-17T17:21:06;27.70;24.70
12452;DHT22;6291;48.924;12.204;2022-07-17T17:26:11;27.70;23.90
12452;DHT22;6291;48.924;12.204;2022-07-17T17:31:14;27.50;24.40
12452;DHT22;6291;48.924;12.204;2022-07-17T17:36:18;27.40;24.00
12452;DHT22;6291;48.924;12.204;2022-07-17T17:41:23;27.20;24.90
12452;DHT22;6291;48.924;12.204;2022-07-17T17:46:26;27.00;25.80
12452;DHT22;6291;48.924;12.204;2022-07-17T17:51:30;26.90;24.20
12452;DHT22;6291;48.924;12.204;2022-07-17T17:56:35;26.70;27.30
12452;DHT22;6291;48.924;12.204;2022-07-17T18:01:38;26.40;25.60
12452;DHT22;6291;48.924;12.204;2022-07-17T18:06:42;26.10;25.70
12452;DHT22;6291;48.924;12.204;2022-07-17T18:11:47;26.00;26.70
12452;DHT22;6291;48.924;12.204;2022-07-17T18:16:50;25.90;27.00
12452;DHT22;6291;48.924;12.204;2022-07-17T18:21:54;25.70;26.30
12452;DHT22;6291;48.924;12.204;2022-07-17T18:26:58;25.60;27.30
12452;DHT22;6291;48.924;12.204;2022-07-17T18:32:02;25.40;30.80
12452;DHT22;6291;48.924;12.204;2022-07-17T18:37:07;25.20;33.00
12452;DHT22;6291;48.924;12.204;2022-07-17T18:42:13;25.10;33.50
12452;DHT22;6291;48.924;12.204;2022-07-17T18:47:17;24.90;31.00
12452;DHT22;6291;48.924;12.204;2022-07-17T18:52:20;24.70;31.60
12452;DHT22;6291;48.924;12.204;2022-07-17T18:57:25;24.40;33.10
12452;DHT22;6291;48.924;12.204;2022-07-17T19:02:29;24.10;33.40
12452;DHT22;6291;48.924;12.204;2022-07-17T19:07:33;24.00;34.40
12452;DHT22;6291;48.924;12.204;2022-07-17T19:12:38;23.80;36.30
12452;DHT22;6291;48.924;12.204;2022-07-17T19:17:41;23.30;38.30
12452;DHT22;6291;48.924;12.204;2022-07-17T19:22:44;23.00;40.10
12452;DHT22;6291;48.924;12.204;2022-07-17T19:27:51;22.90;39.40
12452;DHT22;6291;48.924;12.204;2022-07-17T19:32:55;22.80;39.50
12452;DHT22;6291;48.924;12.204;2022-07-17T19:37:59;22.60;41.40
12452;DHT22;6291;48.924;12.204;2022-07-17T19:43:03;22.50;43.80
12452;DHT22;6291;48.924;12.204;2022-07-17T19:48:07;22.20;43.30
12452;DHT22;6291;48.924;12.204;2022-07-17T19:53:10;22.10;45.20
12452;DHT22;6291;48.924;12.204;2022-07-17T19:58:16;21.50;46.40
12452;DHT22;6291;48.924;12.204;2022-07-17T20:03:20;21.20;47.20
12452;DHT22;6291;48.924;12.204;2022-07-17T20:08:23;21.20;48.80
12452;DHT22;6291;48.924;12.204;2022-07-17T20:13:29;20.80;49.60
12452;DHT22;6291;48.924;12.204;2022-07-17T20:18:33;20.70;50.20
12452;DHT22;6291;48.924;12.204;2022-07-17T20:23:36;20.50;50.00
12452;DHT22;6291;48.924;12.204;2022-07-17T20:28:41;20.30;49.90
12452;DHT22;6291;48.924;12.204;2022-07-17T20:33:44;20.20;50.10
12452;DHT22;6291;48.924;12.204;2022-07-17T20:38:48;20.10;50.50
12452;DHT22;6291;48.924;12.204;2022-07-17T20:43:52;20.00;51.70
12452;DHT22;6291;48.924;12.204;2022-07-17T20:48:57;19.90;53.00
12452;DHT22;6291;48.924;12.204;2022-07-17T20:54:00;19.80;53.50
12452;DHT22;6291;48.924;12.204;2022-07-17T20:59:05;19.70;54.40
12452;DHT22;6291;48.924;12.204;2022-07-17T21:04:08;19.70;52.80
12452;DHT22;6291;48.924;12.204;2022-07-17T21:09:12;19.70;54.80
12452;DHT22;6291;48.924;12.204;2022-07-17T21:14:19;19.60;54.50
12452;DHT22;6291;48.924;12.204;2022-07-17T21:19:23;19.60;54.50
12452;DHT22;6291;48.924;12.204;2022-07-17T21:24:26;19.30;55.60
12452;DHT22;6291;48.924;12.204;2022-07-17T21:29:31;19.10;56.40
12452;DHT22;6291;48.924;12.204;2022-07-17T21:34:34;19.10;56.70
12452;DHT22;6291;48.924;12.204;2022-07-17T21:39:38;19.00;56.60
12452;DHT22;6291;48.924;12.204;2022-07-17T21:44:42;18.70;58.80
12452;DHT22;6291;48.924;12.204;2022-07-17T21:49:45;18.40;59.80
12452;DHT22;6291;48.924;12.204;2022-07-17T21:54:49;18.20;60.50
12452;DHT22;6291;48.924;12.204;2022-07-17T21:59:54;18.20;61.50
12452;DHT22;6291;48.924;12.204;2022-07-17T22:04:58;17.90;61.00
12452;DHT22;6291;48.924;12.204;2022-07-17T22:10:02;19.30;61.70
12452;DHT22;6291;48.924;12.204;2022-07-17T22:15:09;17.80;60.90
12452;DHT22;6291;48.924;12.204;2022-07-17T22:20:14;17.90;60.00
12452;DHT22;6291;48.924;12.204;2022-07-17T22:25:17;17.80;60.10
12452;DHT22;6291;48.924;12.204;2022-07-17T22:30:22;17.60;61.00
12452;DHT22;6291;48.924;12.204;2022-07-17T22:35:25;17.50;61.30
12452;DHT22;6291;48.924;12.204;2022-07-17T22:40:29;17.50;61.00
12452;DHT22;6291;48.924;12.204;2022-07-17T22:45:33;17.50;60.70
12452;DHT22;6291;48.924;12.204;2022-07-17T22:50:37;17.50;58.50
12452;DHT22;6291;48.924;12.204;2022-07-17T22:55:40;17.50;58.40
12452;DHT22;6291;48.924;12.204;2022-07-17T23:00:45;17.40;59.10
12452;DHT22;6291;48.924;12.204;2022-07-17T23:05:49;17.40;59.80
12452;DHT22;6291;48.924;12.204;2022-07-17T23:10:53;17.30;60.20
12452;DHT22;6291;48.924;12.204;2022-07-17T23:15:57;17.20;61.50
12452;DHT22;6291;48.924;12.204;2022-07-17T23:21:01;16.80;63.50
12452;DHT22;6291;48.924;12.204;2022-07-17T23:26:04;16.80;63.90
12452;DHT22;6291;48.924;12.204;2022-07-17T23:31:09;16.80;64.00
12452;DHT22;6291;48.924;12.204;2022-07-17T23:36:13;16.70;64.10
12452;DHT22;6291;48.924;12.204;2022-07-17T23:41:16;16.70;64.20
12452;DHT22;6291;48.924;12.204;2022-07-17T23:46:21;16.70;64.00
12452;DHT22;6291;48.924;12.204;2022-07-17T23:51:24;16.50;65.40
12452;DHT22;6291;48.924;12.204;2022-07-17T23:56:27;16.40;66.40
